Time;durP1;ratioP1;P1;durP2;ratioP2;P2;SDS_P1;SDS_P2;PMS_P1;PMS_P2;Temp;Humidity;BMP_temperature;BMP_pressure;BME280_temperature;BME280_humidity;BME280_pressure;Samples;Min_cycle;Max_cycle;Signal;HPM_P1;HPM_P2
2021/04/09 00:00:19;;;;;;;20.90;8.50;;;4.10;66.30;;;2.83;55.13;98741.28;5018704;28;20452;-84
2021/04/09 00:02:46;;;;;;;15.95;8.90;;;4.10;66.40;;;2.73;55.28;98744.09;5018349;28;20428;-84
2021/04/09 00:05:18;;;;;;;23.80;8.70;;;4.00;66.90;;;2.68;55.74;98740.34;5018449;28;20412;-84
2021/04/09 00:07:45;;;;;;;14.23;8.32;;;3.90;67.40;;;2.52;56.08;98730.75;5018042;28;20721;-84
2021/04/09 00:10:13;;;;;;;16.13;8.43;;;3.80;67.70;;;2.45;56.52;98740.25;5018984;28;20401;-85
2021/04/09 00:12:40;;;;;;;19.57;8.97;;;3.70;68.30;;;2.41;56.70;98740.72;5019603;28;20532;-84
2021/04/09 00:15:10;;;;;;;15.13;8.02;;;3.70;68.60;;;2.60;56.44;98733.34;5022743;28;20428;-83
2021/04/09 00:17:36;;;;;;;18.27;8.63;;;3.80;68.60;;;2.43;56.70;98736.16;5025263;28;20655;-83
2021/04/09 00:20:04;;;;;;;23.98;9.35;;;3.70;68.70;;;2.59;56.23;98729.09;5023276;28;20452;-84
2021/04/09 00:22:30;;;;;;;15.75;8.57;;;3.80;68.60;;;2.32;57.34;98721.66;5023884;28;20420;-84
2021/04/09 00:24:56;;;;;;;18.33;8.82;;;3.60;68.80;;;2.30;57.21;98724.44;5018959;28;20409;-84
2021/04/09 00:27:23;;;;;;;25.10;9.32;;;3.50;69.30;;;2.46;57.41;98715.75;5022474;28;20417;-83
2021/04/09 00:29:49;;;;;;;18.38;8.80;;;3.60;69.30;;;2.29;57.71;98725.41;5023913;28;20400;-83
2021/04/09 00:32:15;;;;;;;19.83;9.48;;;3.60;69.40;;;2.16;57.91;98721.66;5019804;28;20481;-84
2021/04/09 00:34:42;;;;;;;14.75;8.90;;;3.50;69.90;;;2.16;57.97;98719.06;5018000;28;20439;-84
2021/04/09 00:37:08;;;;;;;16.63;9.02;;;3.40;70.20;;;2.28;57.95;98713.31;5018267;28;20443;-84
2021/04/09 00:39:34;;;;;;;17.83;9.00;;;3.50;70.40;;;2.27;58.16;98716.91;5019314;28;20615;-84
2021/04/09 00:42:00;;;;;;;16.35;8.75;;;3.50;70.60;;;2.08;58.62;98722.50;5024145;28;20421;-83
2021/04/09 00:44:26;;;;;;;17.85;8.75;;;3.40;70.70;;;2.20;58.48;98713.31;5024548;28;20412;-84
2021/04/09 00:46:53;;;;;;;15.43;9.00;;;3.40;71.10;;;2.00;59.03;98719.88;5018127;28;20397;-84
2021/04/09 00:49:19;;;;;;;17.63;8.95;;;3.30;71.00;;;1.89;59.14;98717.59;5007835;28;20436;-83
2021/04/09 00:51:46;;;;;;;16.42;9.13;;;3.20;71.60;;;2.02;59.20;98706.66;5021113;28;20423;-84
2021/04/09 00:54:12;;;;;;;18.33;9.00;;;3.20;71.90;;;2.08;58.96;98714.66;5020657;28;20433;-83
2021/04/09 00:56:38;;;;;;;16.58;7.93;;;3.30;71.70;;;2.14;58.39;98711.38;5013321;28;20492;-82
2021/04/09 00:59:04;;;;;;;18.17;8.98;;;3.40;70.90;;;2.16;58.50;98698.97;5031576;28;20413;-82
2021/04/09 01:01:31;;;;;;;19.77;8.97;;;3.50;71.00;;;2.23;58.41;98705.16;5030313;28;20432;-83
2021/04/09 01:04:00;;;;;;;15.43;8.32;;;3.50;71.00;;;2.34;57.38;98699.59;5031714;28;20532;-84
2021/04/09 01:06:26;;;;;;;14.82;7.55;;;3.50;69.90;;;2.43;56.41;98694.34;5025613;28;20405;-82
2021/04/09 01:08:52;;;;;;;17.88;7.90;;;3.60;68.70;;;2.37;56.39;98695.84;5022045;28;20663;-84
2021/04/09 01:11:18;;;;;;;15.63;8.20;;;3.60;68.50;;;2.43;55.78;98689.94;5019950;28;20409;-85
2021/04/09 01:13:46;;;;;;;13.90;7.63;;;3.60;68.00;;;2.42;55.89;98692.72;5018541;28;20490;-85
2021/04/09 01:16:17;;;;;;;14.68;7.28;;;3.60;67.90;;;2.63;56.25;98687.78;5017757;28;20408;-85
2021/04/09 01:18:50;;;;;;;17.17;8.05;;;3.70;68.70;;;2.53;57.07;98680.13;5017957;28;20424;-85
2021/04/09 01:21:33;;;;;;;18.25;8.70;;;3.70;69.10;;;2.01;58.29;98681.53;5016350;28;20772;-85
2021/04/09 01:24:54;;;;;;;16.95;8.48;;;3.40;70.30;;;1.95;58.82;98683.00;5016521;28;20418;-83
2021/04/09 01:28:06;;;;;;;18.48;8.70;;;3.30;71.20;;;1.76;59.56;98676.31;5015812;28;20548;-85
2021/04/09 01:31:32;;;;;;;16.77;8.35;;;3.10;72.10;;;1.73;59.55;98681.84;5016331;28;20423;-84
2021/04/09 01:34:00;;;;;;;18.50;7.95;;;3.10;71.90;;;1.88;59.43;98677.59;5036638;28;20430;-85
2021/04/09 01:36:34;;;;;;;16.40;7.73;;;3.00;72.30;;;1.73;59.82;98679.22;5036347;28;20491;-85
2021/04/09 01:39:06;;;;;;;16.20;7.63;;;3.10;72.10;;;1.83;59.21;98684.31;5022639;28;20437;-84
2021/04/09 01:41:37;;;;;;;18.57;7.77;;;3.10;72.10;;;2.12;58.41;98679.38;5017077;28;20420;-84
2021/04/09 01:44:06;;;;;;;14.13;7.88;;;3.20;71.40;;;1.93;58.62;98677.13;5016746;28;20441;-84
2021/04/09 01:46:37;;;;;;;12.88;7.60;;;3.30;71.00;;;1.85;59.00;98680.56;5016682;28;20420;-85
2021/04/09 01:49:04;;;;;;;13.98;7.53;;;3.20;71.40;;;1.87;59.23;98672.56;5019168;28;20515;-85
2021/04/09 01:51:31;;;;;;;15.30;7.83;;;3.10;71.70;;;1.79;59.25;98673.38;5018578;28;20405;-85
2021/04/09 01:53:57;;;;;;;13.18;7.10;;;3.10;71.60;;;1.79;59.35;98659.50;5016595;28;20416;-85
2021/04/09 01:56:25;;;;;;;12.45;7.38;;;3.10;71.90;;;1.72;59.33;98661.97;5016382;28;20569;-85
2021/04/09 01:58:52;;;;;;;13.80;7.78;;;3.00;72.00;;;1.70;59.80;98657.88;5016256;28;20436;-84
2021/04/09 02:01:19;;;;;;;15.52;7.65;;;2.90;72.50;;;1.77;59.74;98654.44;5016821;28;20485;-83
2021/04/09 02:03:51;;;;;;;12.73;7.05;;;3.10;72.40;;;1.79;59.92;98656.91;5016491;28;20835;-85
2021/04/09 02:06:18;;;;;;;11.90;7.18;;;3.10;72.80;;;1.59;60.30;98653.78;5016460;28;20732;-84
2021/04/09 02:08:45;;;;;;;13.95;7.18;;;2.90;73.20;;;1.66;60.13;98648.72;5016131;28;20416;-84
2021/04/09 02:11:11;;;;;;;13.93;7.50;;;2.90;73.10;;;1.56;60.53;98654.13;5016719;28;20481;-83
2021/04/09 02:13:39;;;;;;;15.75;7.70;;;2.90;73.00;;;1.51;60.68;98640.75;5015621;28;20841;-85
2021/04/09 02:16:07;;;;;;;16.60;7.40;;;2.80;73.50;;;1.53;60.67;98644.81;5016309;28;20509;-85
2021/04/09 02:18:33;;;;;;;16.43;7.30;;;2.80;73.60;;;1.49;60.84;98643.53;5016593;28;20413;-83
2021/04/09 02:21:01;;;;;;;20.42;8.40;;;2.80;73.80;;;1.48;61.12;98638.47;5014857;28;20740;-85
2021/04/09 02:23:28;;;;;;;16.67;7.47;;;2.80;74.20;;;1.67;60.93;98637.31;5016007;28;20424;-84
2021/04/09 02:25:56;;;;;;;14.77;7.97;;;2.90;74.20;;;1.80;60.36;98633.25;5015379;28;20499;-85
2021/04/09 02:28:22;;;;;;;12.57;7.65;;;3.00;73.70;;;1.65;60.64;98634.91;5015551;28;20416;-85
2021/04/09 02:31:02;;;;;;;15.85;8.20;;;2.90;73.50;;;1.59;60.99;98630.31;5027984;28;20401;-83
2021/04/09 02:33:29;;;;;;;17.17;7.80;;;2.90;73.80;;;1.55;61.36;98629.00;5028299;28;20429;-83
2021/04/09 02:35:55;;;;;;;16.73;8.27;;;2.70;74.20;;;1.60;60.90;98628.50;5028558;28;20444;-83
2021/04/09 02:38:23;;;;;;;19.35;7.97;;;2.80;74.10;;;1.59;60.99;98627.69;5027861;28;20516;-83
2021/04/09 02:40:52;;;;;;;14.13;7.40;;;2.80;74.00;;;1.48;61.40;98631.47;5019196;28;20413;-85
2021/04/09 02:43:18;;;;;;;16.30;8.10;;;2.80;74.00;;;1.58;61.22;98626.06;5016339;28;20421;-84
2021/04/09 02:45:44;;;;;;;16.20;7.70;;;2.80;74.40;;;1.66;60.85;98622.63;5014307;28;20421;-84
2021/04/09 02:48:13;;;;;;;21.67;7.82;;;2.90;74.20;;;1.65;61.08;98613.19;4995974;28;20429;-83
2021/04/09 02:50:44;;;;;;;14.13;7.53;;;2.90;74.00;;;1.69;60.96;98609.25;5018636;28;20516;-84
2021/04/09 02:53:15;;;;;;;12.68;6.80;;;2.90;74.30;;;1.87;59.22;98610.72;5017037;28;20516;-86
2021/04/09 02:55:45;;;;;;;13.85;6.20;;;3.10;72.70;;;2.37;56.31;98609.59;5016941;28;20691;-84
2021/04/09 02:58:14;;;;;;;14.30;7.18;;;3.40;69.60;;;2.40;56.25;98601.44;5016615;28;20729;-85
2021/04/09 03:00:45;;;;;;;10.95;5.72;;;3.60;68.90;;;2.72;53.99;98605.69;5015915;28;20489;-84
2021/04/09 03:03:12;;;;;;;12.20;5.75;;;3.80;66.30;;;2.95;53.12;98595.28;5014404;28;20428;-84
2021/04/09 03:05:39;;;;;;;12.30;5.60;;;4.00;65.00;;;2.99;52.72;98599.19;4996785;28;20891;-84
2021/04/09 03:08:06;;;;;;;14.55;5.75;;;4.10;64.10;;;2.95;52.80;98600.50;5013967;28;20811;-84
2021/04/09 03:10:33;;;;;;;10.38;5.25;;;4.20;64.00;;;3.05;52.92;98599.31;5013462;28;20405;-84
2021/04/09 03:13:02;;;;;;;9.85;5.68;;;4.10;64.10;;;2.97;52.84;98594.13;5014063;28;20496;-84
2021/04/09 03:15:34;;;;;;;8.70;5.40;;;4.20;64.10;;;3.00;53.39;98604.25;4996991;28;20490;-84
2021/04/09 03:18:05;;;;;;;11.30;5.35;;;4.10;64.70;;;2.86;54.13;98601.53;5015858;28;20416;-85
2021/04/09 03:20:31;;;;;;;11.45;5.97;;;4.10;65.70;;;2.83;54.19;98602.72;5019059;28;20409;-84
2021/04/09 03:22:57;;;;;;;13.05;5.38;;;4.00;65.70;;;2.89;53.85;98590.75;5028303;28;20428;-84
2021/04/09 03:25:23;;;;;;;16.30;6.55;;;4.10;66.00;;;2.98;54.91;98587.91;5020346;28;20433;-84
2021/04/09 03:27:49;;;;;;;19.30;6.40;;;4.10;66.90;;;2.84;55.68;98600.91;5015433;28;20425;-85
2021/04/09 03:30:21;;;;;;;14.05;6.10;;;4.00;67.40;;;2.58;56.09;98594.16;4998167;28;20420;-85
2021/04/09 03:32:47;;;;;;;14.75;6.35;;;3.80;68.00;;;2.36;57.05;98589.69;5017397;28;20421;-85
2021/04/09 03:35:14;;;;;;;14.33;6.27;;;3.60;68.90;;;2.47;56.89;98588.50;5019456;28;20424;-85
2021/04/09 03:37:40;;;;;;;17.42;5.90;;;3.60;69.40;;;2.50;56.76;98599.41;5019129;28;20760;-84
2021/04/09 03:40:08;;;;;;;14.55;6.40;;;3.60;69.30;;;2.36;57.10;98583.63;5001508;28;20425;-85
2021/04/09 03:42:34;;;;;;;12.05;5.45;;;3.60;69.30;;;2.37;57.37;98582.66;5018158;28;20421;-85
2021/04/09 03:45:01;;;;;;;12.38;5.80;;;3.50;69.60;;;2.37;57.05;98580.06;5020199;28;20458;-84
2021/04/09 03:47:27;;;;;;;10.23;5.80;;;3.50;69.70;;;2.17;56.77;98584.88;5018663;28;20433;-84
2021/04/09 03:49:53;;;;;;;10.65;6.07;;;3.40;68.80;;;2.14;57.37;98586.00;5019858;28;20408;-85
2021/04/09 03:52:20;;;;;;;13.05;5.72;;;3.40;69.30;;;2.14;57.35;98582.59;5020809;28;20428;-84
2021/04/09 03:54:46;;;;;;;13.23;5.45;;;3.40;69.50;;;2.04;57.77;98581.94;5019246;28;20523;-85
2021/04/09 03:57:12;;;;;;;12.10;5.65;;;3.30;69.90;;;2.27;57.66;98578.44;5020119;28;20417;-84
2021/04/09 03:59:38;;;;;;;12.27;5.68;;;3.30;70.30;;;2.42;56.72;98583.78;5025191;28;20670;-84
2021/04/09 04:02:05;;;;;;;12.75;5.97;;;3.50;69.60;;;2.29;57.25;98586.13;5025493;28;20424;-84
2021/04/09 04:04:32;;;;;;;14.65;6.00;;;3.50;69.70;;;2.10;57.96;98582.13;5019959;28;20878;-85
2021/04/09 04:06:58;;;;;;;13.20;6.13;;;3.40;69.90;;;1.98;58.07;98580.00;5000462;28;20429;-84
2021/04/09 04:09:24;;;;;;;14.57;6.47;;;3.20;70.30;;;1.99;58.67;98582.47;5017806;28;20432;-83
2021/04/09 04:11:50;;;;;;;17.98;7.65;;;3.20;71.20;;;1.90;58.64;98573.81;5018538;28;20421;-84
2021/04/09 04:14:16;;;;;;;17.45;6.45;;;3.20;71.00;;;2.23;57.96;98581.56;5018033;28;20420;-84
2021/04/09 04:16:42;;;;;;;18.02;7.15;;;3.30;71.50;;;2.13;58.59;98580.94;5018292;28;20443;-85
2021/04/09 04:19:08;;;;;;;14.07;6.33;;;3.30;70.90;;;2.03;58.61;98586.34;5018257;28;20401;-84
2021/04/09 04:21:35;;;;;;;14.48;6.25;;;3.30;71.00;;;2.14;58.31;98582.59;5017840;28;20413;-85
2021/04/09 04:24:02;;;;;;;13.85;6.68;;;3.30;70.90;;;2.14;58.56;98583.41;5018236;28;20409;-85
2021/04/09 04:26:28;;;;;;;12.90;6.75;;;3.40;71.00;;;2.24;58.18;98591.03;5018491;28;20412;-84
2021/04/09 04:28:54;;;;;;;19.17;7.07;;;3.40;71.00;;;2.32;58.29;98580.56;5019586;28;20431;-85
2021/04/09 04:31:20;;;;;;;20.60;6.70;;;3.50;71.10;;;2.13;58.87;98591.41;5005187;28;20416;-84
2021/04/09 04:33:46;;;;;;;23.20;7.10;;;3.40;71.20;;;1.96;59.01;98585.38;5018047;28;20424;-84
2021/04/09 04:36:12;;;;;;;16.65;7.28;;;3.30;71.50;;;2.09;59.15;98584.88;5018595;28;20436;-84
2021/04/09 04:38:39;;;;;;;13.10;6.70;;;3.30;72.00;;;2.07;58.74;98586.84;5002597;28;20420;-84
2021/04/09 04:41:05;;;;;;;14.20;6.93;;;3.30;71.80;;;2.04;58.80;98574.13;5022045;28;20480;-84
2021/04/09 04:43:32;;;;;;;17.58;6.63;;;3.30;71.60;;;2.01;58.99;98579.69;5019665;28;20420;-85
2021/04/09 04:45:58;;;;;;;17.30;6.90;;;3.20;71.60;;;2.19;58.79;98588.91;5022483;28;20401;-84
2021/04/09 04:48:25;;;;;;;14.52;7.13;;;3.30;71.60;;;2.05;58.85;98578.34;5022419;28;20428;-84
2021/04/09 04:50:53;;;;;;;14.13;6.88;;;3.30;71.40;;;2.12;59.22;98580.13;5027423;28;20424;-83
2021/04/09 04:53:20;;;;;;;13.10;7.07;;;3.30;72.00;;;2.04;59.25;98581.94;5007973;28;20474;-84
2021/04/09 04:55:47;;;;;;;15.55;6.85;;;3.30;71.80;;;2.15;58.92;98577.19;5019865;28;20767;-85
2021/04/09 04:58:13;;;;;;;17.80;7.82;;;3.30;72.20;;;2.10;59.15;98574.28;5020687;28;20432;-85
2021/04/09 05:00:39;;;;;;;18.23;7.70;;;3.30;72.00;;;2.09;59.39;98577.06;5020687;28;20790;-84
2021/04/09 05:03:05;;;;;;;14.73;6.68;;;3.30;72.30;;;2.11;59.00;98580.28;5003424;28;20460;-84
2021/04/09 05:05:32;;;;;;;19.45;8.10;;;3.40;72.00;;;2.05;59.26;98581.78;5020643;28;20401;-84
2021/04/09 05:07:58;;;;;;;16.98;7.22;;;3.30;71.90;;;2.24;58.72;98584.03;5020724;28;20417;-84
2021/04/09 05:10:24;;;;;;;15.90;7.50;;;3.40;71.90;;;2.12;58.88;98579.31;5019712;28;20412;-84
2021/04/09 05:12:51;;;;;;;19.70;7.95;;;3.40;71.60;;;2.30;58.31;98585.13;5019216;28;20450;-84
2021/04/09 05:15:18;;;;;;;18.17;8.23;;;3.40;71.20;;;2.40;58.51;98580.53;5020586;28;20835;-84
2021/04/09 05:17:44;;;;;;;21.02;9.32;;;3.50;71.30;;;2.55;57.75;98589.28;5002693;28;20498;-85
2021/04/09 05:20:11;;;;;;;17.73;8.77;;;3.60;70.80;;;2.52;57.59;98584.41;5019532;28;20409;-86
2021/04/09 05:22:37;;;;;;;21.50;8.50;;;3.70;70.60;;;2.40;57.82;98585.75;5019159;28;20432;-83
2021/04/09 05:25:05;;;;;;;19.40;9.90;;;3.70;70.30;;;2.50;57.72;98581.13;5019960;28;20405;-84
2021/04/09 05:27:31;;;;;;;21.10;9.32;;;3.70;70.40;;;2.76;57.39;98574.81;5018949;28;20806;-84
2021/04/09 05:29:59;;;;;;;22.52;10.05;;;3.80;70.20;;;2.70;57.43;98576.31;5018547;28;20512;-84
2021/04/09 05:32:25;;;;;;;22.60;9.43;;;3.90;69.90;;;2.89;56.89;98575.88;5022823;28;20508;-84
2021/04/09 05:34:52;;;;;;;17.95;9.40;;;4.00;69.60;;;3.21;55.87;98576.63;5018902;28;20929;-83
2021/04/09 05:37:18;;;;;;;22.25;9.25;;;4.20;68.90;;;3.16;55.91;98581.59;5017267;28;20430;-83
2021/04/09 05:39:44;;;;;;;22.63;8.97;;;4.30;68.20;;;3.20;55.80;98575.00;5015623;28;20478;-84
2021/04/09 05:42:10;;;;;;;17.35;8.82;;;4.40;68.20;;;3.30;54.33;98573.78;5019328;28;20417;-82
2021/04/09 05:44:36;;;;;;;17.95;8.82;;;4.40;66.70;;;3.36;54.04;98569.66;5020826;28;20485;-82
2021/04/09 05:47:06;;;;;;;20.35;9.52;;;4.50;66.10;;;3.54;53.01;98569.31;5019646;28;20423;-81
2021/04/09 05:49:32;;;;;;;18.55;8.20;;;4.60;65.10;;;3.63;52.70;98563.84;5020366;28;20810;-81
2021/04/09 05:52:00;;;;;;;17.65;8.55;;;4.70;64.40;;;3.75;52.39;98564.25;5002646;28;20432;-81
2021/04/09 05:54:27;;;;;;;17.52;9.20;;;4.80;64.00;;;3.86;52.05;98561.16;5020730;28;20421;-80
2021/04/09 05:56:53;;;;;;;14.50;8.70;;;5.00;63.60;;;3.97;51.97;98560.72;5021063;28;20425;-81
2021/04/09 05:59:20;;;;;;;18.90;8.45;;;5.10;63.30;;;4.01;51.74;98566.41;5021465;28;20412;-81
2021/04/09 06:01:46;;;;;;;16.15;8.32;;;5.10;63.60;;;4.13;51.74;98562.38;5023715;28;20411;-81
2021/04/09 06:04:13;;;;;;;20.02;8.43;;;5.20;63.10;;;4.11;52.11;98559.09;5023109;28;20413;-82
2021/04/09 06:06:39;;;;;;;18.60;8.73;;;5.30;63.20;;;4.18;52.06;98560.00;5020452;28;20474;-81
2021/04/09 06:09:05;;;;;;;38.27;9.17;;;5.30;63.30;;;4.37;52.13;98561.25;5021225;28;20660;-82
2021/04/09 06:11:32;;;;;;;26.60;8.93;;;5.40;63.60;;;4.48;52.25;98556.34;5022453;28;20405;-80
2021/04/09 06:13:58;;;;;;;21.90;9.10;;;5.50;63.50;;;4.52;51.61;98562.03;5001814;28;20508;-84
2021/04/09 06:16:24;;;;;;;29.88;9.38;;;5.60;63.10;;;4.62;51.60;98557.31;5019306;28;20429;-84
2021/04/09 06:18:50;;;;;;;21.00;8.30;;;5.70;62.60;;;4.70;51.20;98559.03;5018519;28;20442;-83
2021/04/09 06:21:17;;;;;;;25.60;8.63;;;5.80;62.50;;;4.72;51.31;98554.41;5019975;28;20413;-83
2021/04/09 06:23:43;;;;;;;22.90;8.82;;;5.80;62.30;;;4.81;50.85;98548.06;5019338;28;20428;-85
2021/04/09 06:26:10;;;;;;;22.63;9.07;;;5.90;62.10;;;4.84;50.79;98558.16;5027188;28;20421;-85
2021/04/09 06:28:36;;;;;;;23.58;8.55;;;5.90;61.90;;;5.00;50.63;98555.31;5000712;28;20436;-85
2021/04/09 06:31:02;;;;;;;24.85;8.30;;;6.00;61.70;;;5.07;50.63;98558.81;5019130;28;20658;-84
2021/04/09 06:33:28;;;;;;;23.08;8.63;;;6.10;61.70;;;5.23;50.01;98560.38;5017058;28;20432;-85
2021/04/09 06:35:54;;;;;;;23.88;8.60;;;6.20;61.30;;;5.36;48.89;98550.81;5016712;28;20432;-84
2021/04/09 06:38:21;;;;;;;18.25;7.43;;;6.40;59.80;;;5.53;48.26;98555.78;5008028;28;20429;-84
2021/04/09 06:40:48;;;;;;;15.37;7.50;;;6.60;59.00;;;5.64;47.34;98544.78;5022376;28;20417;-83
2021/04/09 06:43:14;;;;;;;16.42;6.80;;;6.70;58.30;;;5.74;47.36;98559.19;5019204;28;21018;-85
2021/04/09 06:45:40;;;;;;;13.25;7.65;;;6.80;58.00;;;5.88;47.08;98541.72;5000535;28;20428;-83
2021/04/09 06:48:10;;;;;;;12.82;6.22;;;6.90;57.60;;;5.97;45.91;98548.47;5019505;28;20496;-84
2021/04/09 06:50:36;;;;;;;15.35;6.90;;;7.00;56.50;;;6.07;45.45;98546.31;5018643;28;20409;-86
2021/04/09 06:53:03;;;;;;;12.80;6.40;;;7.10;55.80;;;6.27;45.15;98554.28;5015012;28;20413;-82
2021/04/09 06:55:30;;;;;;;12.85;6.20;;;7.20;55.60;;;6.46;44.79;98547.50;5011047;28;20422;-82
2021/04/09 06:57:59;;;;;;;12.55;5.82;;;7.40;55.20;;;6.68;44.11;98545.56;5001794;28;20429;-81
2021/04/09 07:00:31;;;;;;;16.35;5.78;;;7.60;54.70;;;6.74;43.94;98545.59;4980647;28;20521;-82
2021/04/09 07:02:57;;;;;;;12.35;5.93;;;7.70;54.70;;;6.86;43.86;98546.63;4997527;28;20422;-81
2021/04/09 07:05:26;;;;;;;11.50;5.47;;;7.90;53.70;;;7.01;43.14;98543.81;4998376;28;20413;-82
2021/04/09 07:07:53;;;;;;;13.20;5.45;;;8.00;53.20;;;7.16;42.46;98538.38;4996150;28;20418;-81
2021/04/09 07:10:19;;;;;;;11.98;5.60;;;8.10;52.60;;;7.31;42.60;98539.81;4997289;28;20418;-81
2021/04/09 07:12:47;;;;;;;14.65;5.50;;;8.20;52.50;;;7.45;41.76;98530.09;4979843;28;20430;-80
2021/04/09 07:15:16;;;;;;;12.07;5.20;;;8.30;51.80;;;7.61;40.76;98524.41;4997925;28;20468;-80
2021/04/09 07:17:47;;;;;;;11.40;4.90;;;8.50;50.60;;;7.70;40.99;98522.38;4997760;28;20713;-81
2021/04/09 07:20:17;;;;;;;13.48;4.65;;;8.60;50.60;;;7.69;40.45;98518.94;4998635;28;20529;-81
2021/04/09 07:22:48;;;;;;;17.33;5.15;;;8.70;50.00;;;7.87;40.56;98514.84;4996880;28;20481;-81
2021/04/09 07:25:16;;;;;;;8.57;4.43;;;8.80;50.00;;;8.01;39.32;98527.00;4998073;28;20426;-82
2021/04/09 07:27:47;;;;;;;9.80;4.65;;;8.90;48.80;;;8.07;39.85;98516.41;4989615;28;20443;-80
2021/04/09 07:30:18;;;;;;;16.43;5.50;;;9.00;49.00;;;8.19;39.10;98511.34;4997691;28;20410;-79
2021/04/09 07:32:45;;;;;;;8.90;4.93;;;9.10;48.30;;;8.41;38.64;98499.50;4998836;28;20549;-80
2021/04/09 07:35:14;;;;;;;10.45;4.75;;;9.30;47.90;;;8.62;37.96;98511.59;4998306;28;20694;-81
2021/04/09 07:37:55;;;;;;;8.13;4.50;;;9.50;47.20;;;8.70;37.95;98508.69;4997237;28;20487;-80
2021/04/09 07:40:26;;;;;;;11.87;4.60;;;9.60;46.90;;;8.76;37.57;98504.41;4979086;28;20450;-80
2021/04/09 07:42:55;;;;;;;14.50;5.93;;;9.70;46.40;;;8.80;37.34;98503.75;4996010;28;20862;-80
2021/04/09 07:45:22;;;;;;;14.68;6.40;;;9.70;46.20;;;8.83;37.24;98494.59;4997625;28;20403;-81
2021/04/09 07:48:00;;;;;;;12.25;5.30;;;9.80;46.00;;;8.87;37.37;98495.81;4997719;28;20432;-81
2021/04/09 07:50:41;;;;;;;11.85;5.10;;;9.80;46.00;;;8.88;37.27;98500.88;4998880;28;20459;-79
2021/04/09 07:53:08;;;;;;;10.43;4.53;;;9.80;45.80;;;8.83;37.28;98502.53;4997476;28;20442;-80
2021/04/09 07:55:35;;;;;;;10.93;5.10;;;9.80;45.60;;;8.84;37.34;98494.41;4982176;28;20430;-81
2021/04/09 07:58:18;;;;;;;15.98;5.90;;;9.80;45.90;;;8.90;37.45;98501.47;4999183;28;20423;-81
2021/04/09 08:00:46;;;;;;;12.45;5.05;;;9.80;46.00;;;9.04;37.37;98496.09;4996525;28;20531;-80
2021/04/09 08:03:30;;;;;;;13.23;4.70;;;9.90;45.90;;;9.25;37.11;98495.72;5018523;28;20473;-81
2021/04/09 08:06:08;;;;;;;14.60;4.97;;;10.10;45.70;;;9.38;36.71;98497.47;5017801;28;20458;-80
2021/04/09 08:08:35;;;;;;;13.65;5.00;;;10.30;45.40;;;9.53;36.52;98498.78;5000128;28;20556;-81
2021/04/09 08:11:19;;;;;;;13.00;4.83;;;10.40;45.00;;;9.70;36.10;98494.53;5017302;28;20420;-81
2021/04/09 08:14:08;;;;;;;22.33;11.23;;;10.50;44.70;;;9.81;36.02;98486.91;5013775;28;20429;-81
2021/04/09 08:16:37;;;;;;;10.55;5.50;;;10.60;44.20;;;9.76;35.66;98489.41;5014653;28;20415;-80
2021/04/09 08:19:07;;;;;;;14.95;5.25;;;10.70;43.70;;;9.71;35.68;98482.13;5019026;28;20505;-80
2021/04/09 08:21:37;;;;;;;10.63;4.70;;;10.70;44.00;;;9.76;35.94;98484.13;5020859;28;20455;-80
2021/04/09 08:24:05;;;;;;;20.65;6.70;;;10.70;44.20;;;9.85;35.84;98478.31;5021258;28;20465;-82
2021/04/09 08:26:33;;;;;;;12.38;4.78;;;10.70;44.20;;;9.90;35.76;98473.19;5022675;28;20458;-81
2021/04/09 08:29:00;;;;;;;10.98;4.53;;;10.80;43.90;;;9.86;35.81;98481.78;5004977;28;20761;-79
2021/04/09 08:31:27;;;;;;;9.88;4.60;;;10.80;43.80;;;9.84;35.86;98478.56;5002879;28;20718;-79
2021/04/09 08:33:54;;;;;;;12.73;4.72;;;10.70;43.90;;;9.95;35.71;98475.16;5020819;28;20428;-81
2021/04/09 08:36:21;;;;;;;10.18;4.50;;;10.80;44.00;;;10.09;35.50;98477.44;5019101;28;20865;-80
2021/04/09 08:38:48;;;;;;;10.60;4.57;;;10.90;43.90;;;10.21;35.54;98474.09;5001430;28;20432;-80
2021/04/09 08:41:15;;;;;;;8.88;4.28;;;11.00;43.60;;;10.23;34.76;98477.31;5017815;28;20478;-81
2021/04/09 08:43:42;;;;;;;11.90;4.20;;;11.10;43.10;;;10.35;34.85;98470.25;4999454;28;20447;-81
2021/04/09 08:46:09;;;;;;;14.35;4.65;;;11.20;43.00;;;10.46;34.91;98475.59;5019262;28;20409;-81
2021/04/09 08:48:38;;;;;;;12.63;5.63;;;11.30;42.90;;;10.45;34.49;98476.63;5018240;28;20593;-81
2021/04/09 08:51:06;;;;;;;15.15;4.65;;;11.40;42.60;;;10.63;34.16;98470.50;5019753;28;20811;-80
2021/04/09 08:53:33;;;;;;;16.48;4.68;;;11.50;42.40;;;10.71;33.55;98472.03;5001781;28;20504;-80
2021/04/09 08:56:00;;;;;;;9.63;4.47;;;11.50;41.70;;;10.83;32.68;98464.91;5001393;28;20425;-81
2021/04/09 08:58:26;;;;;;;9.82;4.20;;;11.60;40.50;;;10.79;32.37;98458.47;5018814;28;20417;-80
2021/04/09 09:00:55;;;;;;;10.50;4.00;;;11.60;40.10;;;10.94;32.64;98458.03;5001830;28;20458;-81
2021/04/09 09:03:27;;;;;;;13.85;4.70;;;11.70;40.30;;;10.97;32.25;98460.25;5017988;28;20715;-81
2021/04/09 09:06:02;;;;;;;7.77;4.17;;;11.80;40.00;;;10.97;31.84;98458.41;5022043;28;20539;-79
2021/04/09 09:09:00;;;;;;;16.98;5.75;;;11.80;39.30;;;11.08;31.80;98454.97;5020011;28;20519;-81
2021/04/09 09:11:50;;;;;;;12.18;4.30;;;11.90;39.10;;;11.14;31.28;98451.41;5007025;28;20488;-81
2021/04/09 09:14:44;;;;;;;9.88;4.15;;;12.00;38.80;;;11.10;31.15;98446.78;5005611;28;20510;-81
2021/04/09 09:17:36;;;;;;;12.70;3.95;;;12.00;38.30;;;11.19;31.21;98448.88;5022615;28;20439;-81
2021/04/09 09:20:18;;;;;;;11.32;4.07;;;12.00;38.30;;;11.11;30.81;98448.41;5023145;28;20416;-80
2021/04/09 09:22:54;;;;;;;10.32;3.50;;;12.00;37.60;;;11.14;30.70;98455.88;5022238;28;20462;-80
2021/04/09 09:25:41;;;;;;;9.00;3.42;;;12.00;37.60;;;11.18;30.40;98444.63;5022084;28;20409;-79
2021/04/09 09:28:17;;;;;;;7.07;3.90;;;12.10;37.50;;;11.27;30.37;98450.41;5003439;28;20436;-80
2021/04/09 09:30:43;;;;;;;9.80;4.05;;;12.10;37.10;;;11.44;30.38;98435.41;5017399;28;20443;-80
2021/04/09 09:33:24;;;;;;;5.57;3.80;;;12.20;37.10;;;11.53;29.80;98433.22;5019563;28;20698;-81
2021/04/09 09:36:05;;;;;;;6.07;3.63;;;12.30;36.80;;;11.58;29.41;98441.28;5017300;28;20447;-81
2021/04/09 09:38:54;;;;;;;8.77;3.50;;;12.40;36.40;;;11.80;29.37;98437.00;5017888;28;20453;-81
2021/04/09 09:41:42;;;;;;;8.75;3.70;;;12.60;36.20;;;11.85;29.34;98431.03;5002265;28;20417;-81
2021/04/09 09:44:29;;;;;;;6.80;3.53;;;12.60;35.90;;;11.81;29.23;98428.03;5018169;28;20424;-81
2021/04/09 09:46:59;;;;;;;9.48;5.45;;;12.70;35.80;;;11.97;28.96;98432.63;5018763;28;20417;-81
2021/04/09 09:49:29;;;;;;;21.43;4.20;;;12.80;35.60;;;11.90;28.28;98434.59;5018543;28;20503;-81
2021/04/09 09:51:57;;;;;;;11.52;3.95;;;12.70;34.60;;;11.94;28.50;98426.97;5018073;28;20421;-80
2021/04/09 09:54:28;;;;;;;9.68;3.75;;;12.70;34.70;;;12.02;28.44;98424.78;5019590;28;20444;-81
2021/04/09 09:56:56;;;;;;;7.80;3.20;;;12.90;34.80;;;12.09;28.32;98423.84;5000211;28;20440;-80
2021/04/09 09:59:27;;;;;;;12.98;3.17;;;12.90;34.50;;;12.25;28.20;98428.41;5017519;28;20445;-81
2021/04/09 10:01:56;;;;;;;7.80;3.72;;;13.00;34.60;;;12.39;28.37;98416.47;5019092;28;20492;-80
2021/04/09 10:04:23;;;;;;;11.50;3.30;;;13.10;34.50;;;12.40;28.13;98418.84;5020433;28;20901;-79
2021/04/09 10:06:54;;;;;;;9.07;3.40;;;13.30;34.00;;;12.36;27.82;98415.06;4999965;28;20901;-80
2021/04/09 10:09:39;;;;;;;9.05;3.40;;;13.20;33.70;;;12.37;27.88;98402.59;5016569;28;20413;-80
2021/04/09 10:12:06;;;;;;;10.60;3.42;;;13.20;33.70;;;12.29;27.77;98405.63;5001053;28;20528;-80
2021/04/09 10:14:42;;;;;;;7.43;2.90;;;13.20;33.70;;;11.98;28.28;98402.38;5022768;28;20676;-80
2021/04/09 10:17:09;;;;;;;7.93;3.40;;;13.00;34.00;;;12.24;28.33;98394.94;5005986;28;20461;-80
2021/04/09 10:19:35;;;;;;;6.20;3.13;;;13.00;34.30;;;12.20;28.40;98399.91;5023238;28;20397;-82
2021/04/09 10:22:01;;;;;;;5.95;3.28;;;13.10;34.40;;;12.15;28.56;98401.66;5026725;28;20492;-81
2021/04/09 10:24:35;;;;;;;8.98;3.63;;;13.10;34.30;;;12.41;27.86;98391.25;5025132;28;20484;-81
2021/04/09 10:27:05;;;;;;;7.38;3.13;;;13.20;34.20;;;12.43;28.03;98392.88;5025605;28;20477;-83
2021/04/09 10:29:35;;;;;;;7.82;3.60;;;13.30;33.90;;;12.67;27.94;98391.72;5024747;28;20416;-81
2021/04/09 10:32:07;;;;;;;7.88;3.20;;;13.40;34.20;;;12.82;27.58;98386.66;5023161;28;20421;-79
2021/04/09 10:34:34;;;;;;;8.10;3.33;;;13.60;33.80;;;12.76;28.26;98382.31;5020638;28;20405;-80